Have a Safe July 4th! 

Flight Track Log - Related Links

Times and Time Zones

All times are in EDT time to prevent confusion due to time zone crossing. See the SWA1728 flight status page for this flight to view local times or setup timezone preferences in your user account.

Time Position Orientation Groundspeed Altitude Reporting Facility
EDT Latitude Longitude Course Direction KTS MPH feet Rate Location/Type
Wed 12:40:36 AM 36.0681 -115.2506 263° West 256 295 5,000  Level Los Angeles Center
Wed 12:41:14 AM 36.0275 -115.2742 205° Southwest 264 304 6,800 1,967 Climbing Los Angeles Center
Wed 12:41:37 AM 36.0008 -115.2886 204° Southwest 289 333 7,000 1,279 Climbing Los Angeles Center
Wed 12:42:15 AM 35.9594 -115.3153 208° Southwest 270 311 8,100 2,700 Climbing Los Angeles Center
Wed 12:43:17 AM 35.9028 -115.3844 225° Southwest 283 326 11,500 3,415 Climbing Los Angeles Center
Wed 12:44:18 AM 35.8883 -115.5050 262° West 338 389 15,100 3,246 Climbing Los Angeles Center
Wed 12:45:19 AM 35.8903 -115.6319 271° West 368 423 18,100 3,148 Climbing Los Angeles Center
Wed 12:46:20 AM 35.9261 -115.7519 290° West 386 444 21,500 3,049 Climbing Los Angeles Center
Wed 12:47:21 AM 36.0008 -115.8639 310° West 402 463 24,300 2,634 Climbing Los Angeles Center
Wed 12:48:23 AM 36.0928 -115.9614 319° Northwest 419 482 26,900 2,293 Climbing Los Angeles Center
Wed 12:49:24 AM 36.1836 -116.0617 318° Northwest 432 497 29,000 2,311 Climbing Los Angeles Center
Wed 12:50:25 AM 36.2739 -116.1633 318° Northwest 436 502 31,600 1,475 Climbing Los Angeles Center
Wed 12:51:26 AM 36.3533 -116.2475 320° Northwest 437 503 32,000 197 Climbing Los Angeles Center
Wed 12:52:27 AM 36.4644 -116.3697 319° Northwest 442 509 32,000  Level Los Angeles Center
Wed 12:53:29 AM 36.5522 -116.4689 318° Northwest 444 511 32,000  Level Los Angeles Center
Wed 12:54:30 AM 36.6450 -116.5706 319° Northwest 444 511 32,000  Level Los Angeles Center
Wed 12:55:31 AM 36.7378 -116.6728 319° Northwest 444 511 32,000  Level Los Angeles Center
Wed 12:56:32 AM 36.8297 -116.7764 318° Northwest 444 511 32,000  Level Los Angeles Center
Wed 12:57:34 AM 36.8986 -116.9036 304° West 457 526 32,000  Level Los Angeles Center
Wed 12:58:35 AM 36.9144 -117.0528 278° West 441 507 32,000  Level Los Angeles Center
Wed 12:59:18 AM 36.9283 -117.1733 278° West 436 502 32,000  Level Oakland Center
Wed 01:00:19 AM 36.9433 -117.3217 277° West 435 501 32,000  Level Oakland Center
Wed 01:01:20 AM 36.9578 -117.4706 277° West 433 498 32,000  Level Oakland Center
Wed 01:02:21 AM 36.9725 -117.6208 277° West 433 498 32,000  Level Oakland Center
Wed 01:03:22 AM 36.9883 -117.7703 278° West 433 498 32,000  Level Oakland Center
Wed 01:04:22 AM 37.0033 -117.9203 277° West 433 498 32,000  Level Oakland Center
Wed 01:05:23 AM 37.0172 -118.0694 277° West 433 498 32,000  Level Oakland Center
Wed 01:06:24 AM 37.0325 -118.2208 277° West 434 499 32,000  Level Oakland Center
Wed 01:07:25 AM 37.0467 -118.3700 277° West 434 499 32,000  Level Oakland Center
Wed 01:08:26 AM 37.0625 -118.5386 277° West 433 498 32,000  Level Oakland Center
Wed 01:09:27 AM 37.0750 -118.6869 276° West 433 498 32,000 -49 Level Oakland Center
Wed 01:10:28 AM 37.0881 -118.8386 276° West 434 499 31,900 -545 Descending Oakland Center
Wed 01:11:28 AM 37.1022 -118.9878 277° West 437 503 30,900 -1,041 Descending Oakland Center
Wed 01:12:29 AM 37.1147 -119.1353 276° West 430 495 29,800 -1,033 Descending Oakland Center
Wed 01:13:30 AM 37.1278 -119.2797 277° West 424 488 28,800 -984 Descending Oakland Center
Wed 01:14:31 AM 37.1403 -119.4225 276° West 419 482 27,800 -984 Descending Oakland Center
Wed 01:15:32 AM 37.1522 -119.5644 276° West 415 478 26,800 -992 Descending Oakland Center
Wed 01:16:32 AM 37.1639 -119.7044 276° West 410 472 25,800 -1,041 Descending Oakland Center
Wed 01:17:33 AM 37.1750 -119.8469 276° West 400 460 24,700 -1,033 Descending Oakland Center
Wed 01:18:34 AM 37.1864 -119.9831 276° West 397 457 23,700 -992 Descending Oakland Center
Wed 01:19:34 AM 37.1969 -120.1178 276° West 390 449 22,700 -992 Descending Oakland Center
Wed 01:20:35 AM 37.2064 -120.2500 275° West 383 441 21,700 -984 Descending Oakland Center
Wed 01:21:36 AM 37.2164 -120.3797 276° West 377 434 20,700 -1,111 Descending Oakland Center
Wed 01:22:23 AM 37.2000 -120.5000 260° West 430 495 19,700 -1,593 Descending Northern Cal TRACON
Wed 01:23:29 AM 37.1667 -120.6333 253° West 356 410 17,700 -1,905 Descending Northern Cal TRACON
Wed 01:24:29 AM 37.1500 -120.7500 260° West 340 391 15,700 -1,950 Descending Northern Cal TRACON
Wed 01:25:29 AM 37.1167 -120.8667 250° West 346 398 13,800 -1,985 Descending Northern Cal TRACON
Wed 01:26:39 AM 37.0892 -121.0014 256° West 348 400 11,400 -1,695 Descending Oakland Center
Wed 01:27:40 AM 37.0636 -121.1181 255° West 348 400 10,100 -689 Descending Oakland Center
Wed 01:28:41 AM 37.0428 -121.2111 254° West 334 384 10,000 -50 Descending Oakland Center
Wed 01:29:41 AM 37.0144 -121.3067 250° West 300 345 10,000 -793 Level Oakland Center
Wed 01:30:42 AM 36.9819 -121.3897 244° Southwest 270 311 8,400 -992 Descending Oakland Center
Wed 01:31:42 AM 36.9853 -121.4939 272° West 301 346 8,000 -744 Descending Oakland Center
Wed 01:32:43 AM 37.0422 -121.5603 317° Northwest 288 331 6,900 -1,033 Descending Oakland Center
Wed 01:33:44 AM 37.0942 -121.6300 313° West 277 319 5,900 -793 Descending Oakland Center
Wed 01:34:44 AM 37.1419 -121.6956 312° West 261 300 5,300 -942 Descending Oakland Center
Wed 01:35:45 AM 37.1967 -121.7536 320° Northwest 261 300 4,000 -1,180 Descending Oakland Center
Wed 01:36:46 AM 37.2469 -121.8064 320° Northwest 249 287 2,900 -1,140 Descending Oakland Center
Wed 01:37:46 AM 37.2889 -121.8514 320° Northwest 219 252 1,700 -992 Descending Oakland Center
Wed 01:38:47 AM 37.3217 -121.8892 317° Northwest 186 214 900 -738 Descending Oakland Center
Wed 01:39:48 AM 37.3494 -121.9192 319° Northwest 154 177 200 -689 Descending Oakland Center
Wed 01:41:00 AM 37.3500 -121.9167 North  Level FlightAware Approximate
Wed 01:48:00 AM 37.3627 -121.9291 North  Level Estimated

Login

Don't have an account? Register now (free) for customized features, flight alerts, and more!